createdAt,value
2018-08-06T00:00:53.774Z,22.58
2018-08-06T00:01:53.759Z,22.56
2018-08-06T00:02:32.749Z,22.56
2018-08-06T00:03:32.742Z,22.49
2018-08-06T00:04:32.734Z,22.52
2018-08-06T00:05:53.743Z,22.44
2018-08-06T00:06:53.746Z,22.47
2018-08-06T00:07:32.733Z,22.38
2018-08-06T00:08:32.707Z,22.37
2018-08-06T00:09:32.710Z,22.25
2018-08-06T00:10:53.721Z,22.26
2018-08-06T00:11:53.706Z,22.26
2018-08-06T00:12:32.702Z,22.15
2018-08-06T00:13:32.684Z,22.21
2018-08-06T00:14:32.691Z,22.04
2018-08-06T00:15:53.698Z,22.07
2018-08-06T00:16:53.673Z,22.07
2018-08-06T00:17:32.655Z,22.14
2018-08-06T00:18:32.665Z,22.06
2018-08-06T00:19:32.654Z,22.04
2018-08-06T00:20:53.648Z,22.12
2018-08-06T00:21:53.704Z,22.14
2018-08-06T00:22:32.637Z,22.18
2018-08-06T00:23:32.643Z,22.14
2018-08-06T00:24:32.633Z,22.12
2018-08-06T00:25:53.627Z,22.07
2018-08-06T00:26:53.621Z,22.18
2018-08-06T00:27:32.607Z,22.16
2018-08-06T00:28:32.601Z,22.28
2018-08-06T00:29:32.638Z,22.31
2018-08-06T00:30:53.590Z,22.31
2018-08-06T00:31:53.598Z,22.37
2018-08-06T00:32:32.567Z,22.40
2018-08-06T00:33:32.597Z,22.40
2018-08-06T00:34:32.566Z,22.49
2018-08-06T00:35:53.575Z,22.51
2018-08-06T00:36:53.571Z,22.51
2018-08-06T00:37:32.550Z,22.56
2018-08-06T00:38:32.548Z,22.58
2018-08-06T00:39:32.535Z,22.53
2018-08-06T00:40:53.541Z,22.62
2018-08-06T00:41:53.527Z,22.55
2018-08-06T00:42:32.526Z,22.55
2018-08-06T00:43:32.529Z,22.44
2018-08-06T00:44:32.505Z,22.53
2018-08-06T00:45:53.518Z,22.40
2018-08-06T00:46:53.503Z,22.44
2018-08-06T00:47:32.520Z,22.44
2018-08-06T00:48:32.486Z,22.26
2018-08-06T00:49:32.477Z,22.22
2018-08-06T00:50:53.477Z,22.15
2018-08-06T00:51:53.471Z,22.08
2018-08-06T00:52:32.468Z,21.88
2018-08-06T00:53:32.464Z,21.80
2018-08-06T00:54:32.479Z,21.77
2018-08-06T00:55:53.454Z,21.75
2018-08-06T00:56:53.449Z,21.51
2018-08-06T00:57:32.441Z,21.41
2018-08-06T00:58:32.430Z,21.25
2018-08-06T00:59:32.414Z,21.14
2018-08-06T01:00:53.432Z,21.01
2018-08-06T01:01:53.422Z,21.01
2018-08-06T01:02:32.442Z,21.13
2018-08-06T01:03:32.396Z,21.23
2018-08-06T01:04:32.390Z,21.20
2018-08-06T01:05:53.392Z,21.38
2018-08-06T01:06:53.386Z,21.48
2018-08-06T01:07:32.376Z,21.38
2018-08-06T01:08:32.382Z,21.40
2018-08-06T01:09:32.376Z,21.50
2018-08-06T01:10:53.360Z,21.60
2018-08-06T01:11:53.358Z,21.68
2018-08-06T01:12:32.346Z,21.75
2018-08-06T01:13:32.334Z,21.69
2018-08-06T01:14:32.338Z,21.53
2018-08-06T01:15:53.342Z,21.41
2018-08-06T01:16:53.326Z,21.43
2018-08-06T01:17:32.321Z,21.22
2018-08-06T01:18:32.313Z,21.14
2018-08-06T01:19:32.299Z,21.01
2018-08-06T01:20:53.303Z,20.98
2018-08-06T01:21:53.294Z,20.83
2018-08-06T01:22:32.284Z,20.85
2018-08-06T01:23:32.294Z,20.75
2018-08-06T01:24:32.273Z,20.64
2018-08-06T01:25:53.267Z,20.64
2018-08-06T01:26:53.266Z,20.68
2018-08-06T01:27:32.263Z,20.78
2018-08-06T01:28:32.266Z,20.90
2018-08-06T01:29:32.241Z,20.83
2018-08-06T01:30:53.251Z,20.85
2018-08-06T01:31:53.227Z,20.93
2018-08-06T01:32:32.223Z,20.83
2018-08-06T01:33:32.214Z,20.92
2018-08-06T01:34:32.226Z,20.98
2018-08-06T01:35:53.216Z,20.88
2018-08-06T01:36:53.233Z,20.89
2018-08-06T01:37:32.218Z,20.96
2018-08-06T01:38:32.181Z,20.88
2018-08-06T01:39:32.180Z,20.82
2018-08-06T01:40:53.182Z,20.85
2018-08-06T01:41:53.166Z,20.89
2018-08-06T01:42:32.165Z,20.75
2018-08-06T01:43:32.167Z,20.71
2018-08-06T01:44:32.143Z,20.80
2018-08-06T01:45:53.214Z,20.82
2018-08-06T01:46:53.137Z,20.80
2018-08-06T01:47:32.130Z,20.78
2018-08-06T01:48:32.129Z,20.71
2018-08-06T01:49:32.118Z,20.75
2018-08-06T01:50:53.120Z,20.59
2018-08-06T01:51:53.137Z,20.55
2018-08-06T01:52:32.099Z,20.50
2018-08-06T01:53:32.095Z,20.56
2018-08-06T01:54:32.075Z,20.52
2018-08-06T01:55:53.098Z,20.66
2018-08-06T01:56:53.087Z,20.58
2018-08-06T01:57:32.055Z,20.71
2018-08-06T01:58:32.059Z,20.68
2018-08-06T01:59:32.054Z,20.66
2018-08-06T02:00:53.045Z,20.71
2018-08-06T02:01:53.058Z,20.71
2018-08-06T02:02:32.038Z,20.74
2018-08-06T02:03:32.037Z,20.85
2018-08-06T02:04:32.024Z,20.83
2018-08-06T02:05:53.024Z,21.05
2018-08-06T02:06:53.015Z,21.15
2018-08-06T02:07:31.993Z,21.26
2018-08-06T02:08:31.982Z,21.30
2018-08-06T02:09:32.009Z,21.48
2018-08-06T02:10:52.987Z,21.63
2018-08-06T02:11:52.973Z,21.77
2018-08-06T02:12:31.977Z,21.80
2018-08-06T02:13:31.957Z,21.89
2018-08-06T02:14:31.955Z,22.01
2018-08-06T02:15:52.949Z,22.15
2018-08-06T02:16:52.941Z,22.15
2018-08-06T02:17:31.937Z,22.30
2018-08-06T02:18:31.940Z,22.31
2018-08-06T02:19:31.930Z,22.31
2018-08-06T02:20:52.935Z,22.43
2018-08-06T02:21:52.928Z,22.51
2018-08-06T02:22:31.907Z,22.56
2018-08-06T02:23:31.901Z,22.47
2018-08-06T02:24:31.917Z,22.61
2018-08-06T02:25:52.896Z,22.63
2018-08-06T02:26:52.889Z,22.76
2018-08-06T02:27:31.874Z,22.74
2018-08-06T02:28:31.869Z,22.71
2018-08-06T02:29:31.865Z,22.81
2018-08-06T02:30:52.867Z,22.84
2018-08-06T02:31:52.852Z,22.77
2018-08-06T02:32:31.840Z,22.84
2018-08-06T02:33:31.846Z,22.96
2018-08-06T02:34:31.832Z,22.91
2018-08-06T02:35:52.833Z,22.95
2018-08-06T02:36:52.832Z,23.02
2018-08-06T02:37:31.821Z,22.99
2018-08-06T02:38:31.801Z,23.08
2018-08-06T02:39:31.792Z,23.04
2018-08-06T02:40:52.809Z,23.11
2018-08-06T02:41:52.801Z,23.13
2018-08-06T02:42:31.785Z,23.07
2018-08-06T02:43:31.768Z,23.17
2018-08-06T02:44:31.763Z,23.13
2018-08-06T02:45:52.769Z,23.16
2018-08-06T02:46:52.775Z,23.16
2018-08-06T02:47:31.761Z,23.17
2018-08-06T02:48:31.755Z,23.25
2018-08-06T02:49:31.733Z,23.32
2018-08-06T02:50:52.737Z,23.28
2018-08-06T02:51:52.736Z,23.25
2018-08-06T02:52:31.724Z,23.29
2018-08-06T02:53:31.698Z,23.28
2018-08-06T02:54:31.707Z,23.42
2018-08-06T02:55:52.713Z,23.29
2018-08-06T02:56:52.700Z,23.29
2018-08-06T02:57:31.691Z,23.32
2018-08-06T02:58:31.691Z,23.34
2018-08-06T02:59:31.683Z,23.34
2018-08-06T03:00:52.676Z,23.37
2018-08-06T03:01:52.672Z,23.36
2018-08-06T03:02:31.660Z,23.34
2018-08-06T03:03:31.662Z,23.47
2018-08-06T03:04:31.757Z,23.47
2018-08-06T03:05:52.653Z,23.44
2018-08-06T03:06:52.644Z,23.45
2018-08-06T03:07:31.625Z,23.42
2018-08-06T03:08:31.639Z,23.45
2018-08-06T03:09:31.612Z,23.51
2018-08-06T03:10:52.630Z,23.52
2018-08-06T03:11:52.629Z,23.52
2018-08-06T03:12:31.598Z,23.55
2018-08-06T03:13:31.595Z,23.59
2018-08-06T03:14:31.590Z,23.64
2018-08-06T03:15:52.601Z,23.59
2018-08-06T03:16:52.619Z,23.62
2018-08-06T03:17:31.568Z,23.71
2018-08-06T03:18:31.574Z,23.69
2018-08-06T03:19:31.560Z,23.74
2018-08-06T03:20:52.572Z,23.73
2018-08-06T03:21:52.559Z,23.71
2018-08-06T03:22:31.545Z,23.69
2018-08-06T03:23:31.541Z,23.67
2018-08-06T03:24:31.530Z,23.71
2018-08-06T03:25:52.533Z,23.70
2018-08-06T03:26:52.527Z,23.71
2018-08-06T03:27:31.509Z,23.70
2018-08-06T03:28:31.506Z,23.77
2018-08-06T03:29:31.565Z,23.77
2018-08-06T03:30:52.491Z,23.81
2018-08-06T03:31:52.507Z,23.81
2018-08-06T03:32:31.479Z,23.79
2018-08-06T03:33:31.472Z,23.81
2018-08-06T03:34:31.474Z,23.82
2018-08-06T03:35:52.468Z,23.85
2018-08-06T03:36:52.464Z,23.85
2018-08-06T03:37:31.468Z,23.73
2018-08-06T03:38:31.461Z,23.81
2018-08-06T03:39:31.444Z,23.82
2018-08-06T03:40:52.482Z,23.84
2018-08-06T03:41:52.438Z,23.92
2018-08-06T03:42:31.468Z,23.92
2018-08-06T03:43:31.419Z,23.99
2018-08-06T03:44:31.439Z,24.09
2018-08-06T03:45:52.453Z,24.09
2018-08-06T03:46:52.428Z,24.13
2018-08-06T03:47:31.430Z,24.14
2018-08-06T03:48:31.383Z,24.16
2018-08-06T03:49:31.374Z,24.18
2018-08-06T03:50:52.411Z,24.19
2018-08-06T03:51:52.389Z,24.16
2018-08-06T03:52:31.385Z,24.19
2018-08-06T03:53:31.385Z,24.21
2018-08-06T03:54:31.376Z,24.19
2018-08-06T03:55:52.351Z,24.25
2018-08-06T03:56:52.342Z,24.25
2018-08-06T03:57:31.340Z,24.25
2018-08-06T03:58:31.351Z,24.28
2018-08-06T03:59:31.345Z,24.25
2018-08-06T04:00:52.316Z,24.31
2018-08-06T04:01:52.333Z,24.31
2018-08-06T04:02:31.297Z,24.31
2018-08-06T04:03:31.304Z,24.31
2018-08-06T04:04:31.280Z,24.37
2018-08-06T04:05:52.286Z,24.34
2018-08-06T04:06:52.289Z,24.36
2018-08-06T04:07:31.265Z,24.29
2018-08-06T04:08:31.268Z,24.37
2018-08-06T04:09:31.253Z,24.37
2018-08-06T04:10:52.256Z,24.36
2018-08-06T04:11:52.243Z,24.41
2018-08-06T04:12:31.250Z,24.36
2018-08-06T04:13:31.296Z,24.31
2018-08-06T04:14:31.232Z,24.37
2018-08-06T04:15:52.219Z,24.38
2018-08-06T04:16:52.216Z,24.44
2018-08-06T04:17:31.203Z,24.43
2018-08-06T04:18:31.187Z,24.43
2018-08-06T04:19:31.191Z,24.41
2018-08-06T04:20:52.171Z,24.40
2018-08-06T04:21:52.188Z,24.46
2018-08-06T04:22:31.165Z,24.41
2018-08-06T04:23:31.156Z,24.41
2018-08-06T04:24:31.158Z,24.43
2018-08-06T04:25:52.149Z,24.44
2018-08-06T04:26:52.135Z,24.41
2018-08-06T04:27:31.134Z,24.40
2018-08-06T04:28:31.126Z,24.46
2018-08-06T04:29:31.117Z,24.41
2018-08-06T04:30:52.123Z,24.44
2018-08-06T04:31:52.115Z,24.50
2018-08-06T04:32:31.110Z,24.41
2018-08-06T04:33:31.098Z,24.41
2018-08-06T04:34:31.093Z,24.48
2018-08-06T04:35:52.092Z,24.44
2018-08-06T04:36:52.092Z,24.50
2018-08-06T04:37:31.071Z,24.50
2018-08-06T04:38:31.098Z,24.47
2018-08-06T04:39:31.054Z,24.53
2018-08-06T04:40:52.052Z,24.44
2018-08-06T04:41:52.030Z,24.46
2018-08-06T04:42:31.020Z,24.53
2018-08-06T04:43:31.026Z,24.46
2018-08-06T04:44:31.013Z,24.48
2018-08-06T04:45:52.056Z,24.53
2018-08-06T04:46:52.011Z,24.50
2018-08-06T04:47:30.999Z,24.47
2018-08-06T04:48:30.993Z,24.56
2018-08-06T04:49:30.987Z,24.50
2018-08-06T04:50:51.979Z,24.53
2018-08-06T04:51:51.982Z,24.50
2018-08-06T04:52:30.959Z,24.48
2018-08-06T04:53:30.959Z,24.47
2018-08-06T04:54:30.964Z,24.48
2018-08-06T04:55:51.957Z,24.48
2018-08-06T04:56:51.956Z,24.48
2018-08-06T04:57:30.927Z,24.51
2018-08-06T04:58:30.931Z,24.62
2018-08-06T04:59:30.930Z,24.61
2018-08-06T05:00:51.917Z,24.63
2018-08-06T05:01:51.918Z,24.62
2018-08-06T05:02:30.894Z,24.55
2018-08-06T05:03:30.891Z,24.63
2018-08-06T05:04:30.889Z,24.62
2018-08-06T05:05:51.880Z,24.58
2018-08-06T05:06:51.898Z,24.66
2018-08-06T05:07:30.878Z,24.56
2018-08-06T05:08:30.871Z,24.61
2018-08-06T05:09:30.858Z,24.63
2018-08-06T05:10:51.844Z,24.62
2018-08-06T05:11:51.847Z,24.69
2018-08-06T05:12:30.840Z,24.62
2018-08-06T05:13:30.863Z,24.65
2018-08-06T05:14:30.825Z,24.63
2018-08-06T05:15:51.822Z,24.63
2018-08-06T05:16:51.862Z,24.66
2018-08-06T05:17:30.798Z,24.68
2018-08-06T05:18:30.790Z,24.66
2018-08-06T05:19:30.831Z,24.68
2018-08-06T05:20:51.808Z,24.69
2018-08-06T05:21:51.778Z,24.68
2018-08-06T05:22:30.770Z,24.68
2018-08-06T05:23:30.754Z,24.82
2018-08-06T05:24:30.740Z,24.78
2018-08-06T05:25:51.771Z,24.71
2018-08-06T05:26:51.741Z,24.79
2018-08-06T05:27:30.722Z,24.75
2018-08-06T05:28:30.732Z,24.79
2018-08-06T05:29:30.722Z,24.82
2018-08-06T05:30:51.716Z,24.85
2018-08-06T05:31:51.722Z,24.85
2018-08-06T05:32:30.694Z,24.84
2018-08-06T05:33:30.688Z,24.81
2018-08-06T05:34:30.677Z,24.93
2018-08-06T05:35:51.675Z,24.89
2018-08-06T05:36:51.667Z,24.93
2018-08-06T05:37:30.660Z,24.81
2018-08-06T05:38:30.653Z,24.84
2018-08-06T05:39:30.650Z,24.94
2018-08-06T05:40:51.647Z,24.99
2018-08-06T05:41:51.634Z,24.97
2018-08-06T05:42:30.623Z,24.96
2018-08-06T05:43:30.637Z,25.06
2018-08-06T05:44:30.622Z,24.99
2018-08-06T05:45:51.613Z,24.99
2018-08-06T05:46:51.610Z,25.09
2018-08-06T05:47:30.596Z,24.97
2018-08-06T05:48:30.585Z,25.09
2018-08-06T05:49:30.580Z,25.06
2018-08-06T05:50:51.603Z,25.01
2018-08-06T05:51:51.577Z,25.01
2018-08-06T05:52:30.563Z,25.04
2018-08-06T05:53:30.559Z,25.06
2018-08-06T05:54:30.555Z,25.15
2018-08-06T05:55:51.552Z,25.11
2018-08-06T05:56:51.541Z,25.12
2018-08-06T05:57:30.540Z,25.11
2018-08-06T05:58:30.534Z,25.12
2018-08-06T05:59:30.518Z,25.15
2018-08-06T06:00:51.505Z,25.12
2018-08-06T06:01:51.547Z,25.19
2018-08-06T06:02:30.495Z,25.19
2018-08-06T06:03:30.488Z,25.22
2018-08-06T06:04:30.530Z,25.26
2018-08-06T06:05:51.487Z,25.21
2018-08-06T06:09:15.426Z,25.18
2018-08-06T06:10:15.406Z,25.18
2018-08-06T06:12:08.275Z,25.19
2018-08-06T06:13:08.267Z,25.21
2018-08-06T06:15:01.156Z,25.19
2018-08-06T06:16:01.140Z,25.25
2018-08-06T06:17:54.997Z,25.33
2018-08-06T06:18:54.991Z,25.29
2018-08-06T06:20:47.875Z,25.37
2018-08-06T06:21:47.853Z,25.41
2018-08-06T06:23:40.747Z,25.37
2018-08-06T06:24:40.726Z,25.40
2018-08-06T06:26:33.603Z,25.49
2018-08-06T06:27:33.601Z,25.51
2018-08-06T06:29:26.507Z,25.49
2018-08-06T06:30:26.465Z,25.49
2018-08-06T06:32:19.338Z,25.48
2018-08-06T06:33:19.326Z,25.56
2018-08-06T06:35:12.221Z,25.56
2018-08-06T06:36:12.204Z,25.59
2018-08-06T06:38:05.079Z,25.59
2018-08-06T06:39:05.070Z,25.63
2018-08-06T06:40:57.970Z,25.63
2018-08-06T06:41:57.942Z,25.71
2018-08-06T06:43:50.826Z,25.73
2018-08-06T06:44:50.806Z,25.73
2018-08-06T06:46:43.681Z,25.74
2018-08-06T06:47:43.670Z,25.80
2018-08-06T06:49:36.560Z,25.74
2018-08-06T06:50:36.541Z,25.78
2018-08-06T06:52:29.417Z,25.85
2018-08-06T06:53:29.409Z,25.86
2018-08-06T06:55:22.294Z,25.89
2018-08-06T06:56:22.276Z,25.88
2018-08-06T06:58:15.152Z,25.83
2018-08-06T06:59:15.144Z,25.88
2018-08-06T07:01:08.065Z,25.96
2018-08-06T07:02:08.041Z,25.93
2018-08-06T07:04:00.930Z,26.01
2018-08-06T07:05:00.906Z,25.96
2018-08-06T07:06:53.785Z,26.01
2018-08-06T07:07:53.805Z,25.98
2018-08-06T07:09:46.697Z,26.10
2018-08-06T07:10:46.650Z,25.98
2018-08-06T07:12:39.523Z,26.03
2018-08-06T07:13:39.549Z,25.98
2018-08-06T07:15:32.401Z,26.16
2018-08-06T07:16:32.382Z,26.07
2018-08-06T07:18:25.261Z,26.18
2018-08-06T07:19:25.252Z,26.07
2018-08-06T07:21:18.139Z,26.23
2018-08-06T07:22:18.119Z,26.30
2018-08-06T07:24:11.007Z,26.31
2018-08-06T07:25:10.994Z,26.30
2018-08-06T07:27:03.870Z,26.29
2018-08-06T07:28:03.857Z,26.34
2018-08-06T07:29:56.745Z,26.44
2018-08-06T07:30:56.767Z,26.46
2018-08-06T07:32:49.605Z,26.45
2018-08-06T07:33:49.659Z,26.49
2018-08-06T07:35:42.495Z,26.51
2018-08-06T07:36:42.464Z,26.53
2018-08-06T07:38:35.393Z,26.63
2018-08-06T07:39:35.341Z,26.66
2018-08-06T07:41:28.232Z,26.66
2018-08-06T07:42:28.224Z,26.64
2018-08-06T07:44:21.109Z,26.71
2018-08-06T07:45:21.084Z,26.76
2018-08-06T07:47:13.961Z,26.86
2018-08-06T07:48:13.952Z,26.78
2018-08-06T07:50:07.846Z,26.89
2018-08-06T07:51:07.810Z,26.88
2018-08-06T07:53:01.687Z,26.93
2018-08-06T07:54:01.675Z,26.96
2018-08-06T07:55:54.582Z,26.97
2018-08-06T07:56:54.546Z,26.98
2018-08-06T07:58:48.420Z,26.98
2018-08-06T07:59:48.440Z,27.08
2018-08-06T08:01:41.296Z,27.08
2018-08-06T08:02:41.275Z,27.07
2018-08-06T08:04:34.171Z,27.16
2018-08-06T08:05:34.151Z,27.05
2018-08-06T08:07:27.035Z,27.20
2018-08-06T08:08:27.024Z,27.18
2018-08-06T08:10:19.912Z,27.19
2018-08-06T08:11:19.888Z,27.11
2018-08-06T08:13:12.765Z,27.19
2018-08-06T08:14:12.769Z,27.22
2018-08-06T08:16:05.681Z,27.34
2018-08-06T08:17:05.652Z,27.26
2018-08-06T08:18:58.549Z,27.26
2018-08-06T08:19:58.630Z,27.28
2018-08-06T08:21:51.422Z,27.38
2018-08-06T08:22:51.400Z,27.44
2018-08-06T08:24:44.294Z,27.40
2018-08-06T08:25:44.276Z,27.48
2018-08-06T08:27:37.149Z,27.48
2018-08-06T08:28:37.140Z,27.43
2018-08-06T08:30:30.035Z,27.50
2018-08-06T08:31:30.015Z,27.57
2018-08-06T08:33:22.898Z,27.57
2018-08-06T08:34:22.887Z,27.66
2018-08-06T08:36:15.786Z,27.75
2018-08-06T08:37:15.758Z,27.71
2018-08-06T08:39:08.637Z,27.78
2018-08-06T08:40:08.632Z,27.81
2018-08-06T08:42:01.524Z,27.81
2018-08-06T08:43:01.504Z,27.82
2018-08-06T08:44:54.410Z,27.98
2018-08-06T08:45:54.394Z,27.90
2018-08-06T08:47:47.264Z,27.98
2018-08-06T08:48:47.255Z,28.04
2018-08-06T08:50:40.147Z,28.04
2018-08-06T08:51:40.130Z,28.15
2018-08-06T08:53:33.023Z,28.15
2018-08-06T08:54:33.013Z,28.15
2018-08-06T08:56:25.914Z,28.15
2018-08-06T08:57:25.891Z,28.20
2018-08-06T08:59:18.779Z,28.27
2018-08-06T09:00:18.771Z,28.27
2018-08-06T09:02:11.663Z,28.31
2018-08-06T09:03:11.647Z,28.40
2018-08-06T09:05:04.538Z,28.50
2018-08-06T09:06:04.518Z,28.56
2018-08-06T09:07:57.401Z,28.53
2018-08-06T09:08:57.390Z,28.55
2018-08-06T09:10:50.791Z,28.62
2018-08-06T09:11:50.770Z,28.55
2018-08-06T09:13:43.650Z,28.70
2018-08-06T09:14:43.648Z,28.60
2018-08-06T09:16:36.538Z,28.64
2018-08-06T09:17:36.513Z,28.75
2018-08-06T09:19:30.385Z,28.72
2018-08-06T09:20:30.375Z,28.75
2018-08-06T09:22:23.266Z,28.82
2018-08-06T09:23:23.249Z,28.74
2018-08-06T09:25:16.140Z,28.84
2018-08-06T09:26:16.123Z,28.86
2018-08-06T09:28:09.005Z,28.92
2018-08-06T09:29:08.991Z,28.90
2018-08-06T09:30:09.023Z,28.90
2018-08-06T09:31:08.981Z,28.93
2018-08-06T09:32:08.977Z,28.94
2018-08-06T09:33:08.973Z,29.06
2018-08-06T09:34:09.069Z,29.05
2018-08-06T09:35:08.964Z,29.03
2018-08-06T09:36:08.958Z,29.06
2018-08-06T09:37:08.954Z,29.12
2018-08-06T09:38:08.949Z,29.09
2018-08-06T09:39:08.952Z,29.16
2018-08-06T09:40:08.941Z,29.12
2018-08-06T09:41:08.961Z,29.10
2018-08-06T09:42:08.931Z,29.12
2018-08-06T09:43:08.928Z,29.16
2018-08-06T09:44:08.917Z,29.13
2018-08-06T09:45:08.919Z,29.20
2018-08-06T09:46:08.920Z,29.16
2018-08-06T09:47:08.913Z,29.22
2018-08-06T09:48:08.908Z,29.25
2018-08-06T09:49:08.916Z,29.27
2018-08-06T09:50:08.909Z,29.27
2018-08-06T09:51:08.894Z,29.32
2018-08-06T09:52:08.890Z,29.34
2018-08-06T09:53:08.884Z,29.24
2018-08-06T09:54:08.882Z,29.24
2018-08-06T09:55:08.876Z,29.30
2018-08-06T09:56:08.871Z,29.32
2018-08-06T09:57:08.923Z,29.27
2018-08-06T09:58:08.864Z,29.39
2018-08-06T09:59:08.859Z,29.37
2018-08-06T10:00:08.855Z,29.40
2018-08-06T10:01:08.852Z,29.39
2018-08-06T10:02:08.846Z,29.43
2018-08-06T10:03:08.840Z,29.40
2018-08-06T10:04:08.837Z,29.42
2018-08-06T10:05:08.834Z,29.44
2018-08-06T10:06:08.899Z,29.40
2018-08-06T10:07:08.823Z,29.44
2018-08-06T10:08:08.818Z,29.53
2018-08-06T10:09:08.817Z,29.52
2018-08-06T10:10:08.812Z,29.47
2018-08-06T10:11:08.810Z,29.57
2018-08-06T10:12:08.804Z,29.52
2018-08-06T10:13:08.799Z,29.58
2018-08-06T10:14:08.795Z,29.59
2018-08-06T10:15:08.792Z,29.62
2018-08-06T10:16:08.789Z,29.57
2018-08-06T10:17:08.782Z,29.55
2018-08-06T10:18:08.782Z,29.67
2018-08-06T10:19:08.786Z,29.68
2018-08-06T10:20:08.769Z,29.64
2018-08-06T10:21:08.767Z,29.65
2018-08-06T10:22:08.767Z,29.69
2018-08-06T10:23:08.756Z,29.68
2018-08-06T10:24:08.751Z,29.64
2018-08-06T10:25:08.754Z,29.81
2018-08-06T10:26:08.747Z,29.67
2018-08-06T10:27:08.741Z,29.68
2018-08-06T10:28:08.738Z,29.73
2018-08-06T10:29:08.734Z,29.67
2018-08-06T10:30:08.799Z,29.74
2018-08-06T10:31:08.724Z,29.76
2018-08-06T10:32:08.723Z,29.79
2018-08-06T10:33:08.718Z,29.79
2018-08-06T10:34:08.722Z,29.83
2018-08-06T10:35:08.707Z,29.80
2018-08-06T10:36:08.705Z,29.79
2018-08-06T10:37:08.702Z,29.83
2018-08-06T10:38:08.699Z,29.87
2018-08-06T10:39:08.692Z,29.80
2018-08-06T10:40:08.688Z,29.87
2018-08-06T10:41:08.688Z,29.84
2018-08-06T10:42:08.682Z,29.87
2018-08-06T10:43:08.678Z,29.86
2018-08-06T10:44:08.675Z,29.87
2018-08-06T10:45:08.673Z,29.90
2018-08-06T10:46:08.675Z,29.89
2018-08-06T10:47:08.662Z,29.84
2018-08-06T10:48:08.698Z,29.87
2018-08-06T10:49:08.656Z,29.87
2018-08-06T10:50:08.654Z,29.92
2018-08-06T10:51:08.647Z,29.92
2018-08-06T10:52:08.641Z,29.90
2018-08-06T10:53:08.636Z,29.92
2018-08-06T10:54:08.633Z,29.87
2018-08-06T10:55:08.629Z,29.92
2018-08-06T10:56:08.624Z,29.95
2018-08-06T10:57:08.624Z,29.96
2018-08-06T10:58:08.632Z,29.89
2018-08-06T10:59:08.615Z,29.89
2018-08-06T11:00:08.619Z,29.98
2018-08-06T11:01:08.609Z,29.95
2018-08-06T11:02:08.604Z,29.96
2018-08-06T11:03:08.600Z,29.96
2018-08-06T11:04:08.598Z,29.96
2018-08-06T11:05:08.593Z,29.98
2018-08-06T11:06:08.589Z,29.92
2018-08-06T11:07:08.583Z,29.96
2018-08-06T11:08:08.585Z,29.92
2018-08-06T11:09:08.586Z,29.96
2018-08-06T11:10:08.573Z,30.05
2018-08-06T11:11:08.568Z,29.99
2018-08-06T11:12:08.569Z,29.99
2018-08-06T11:13:08.562Z,29.99
2018-08-06T11:14:08.631Z,29.94
2018-08-06T11:15:08.555Z,30.03
2018-08-06T11:16:08.555Z,30.01
2018-08-06T11:17:08.547Z,29.98
2018-08-06T11:18:08.543Z,29.99
2018-08-06T11:19:08.537Z,29.99
2018-08-06T11:20:08.535Z,29.89
2018-08-06T11:21:08.533Z,30.03
2018-08-06T11:22:08.534Z,30.05
2018-08-06T11:23:08.522Z,29.94
2018-08-06T11:24:08.519Z,29.96
2018-08-06T11:25:08.515Z,29.99
2018-08-06T11:26:08.511Z,30.02
2018-08-06T11:27:08.507Z,29.99
2018-08-06T11:28:08.505Z,30.01
2018-08-06T11:29:08.501Z,30.01
2018-08-06T11:30:08.502Z,29.99
2018-08-06T11:31:08.493Z,30.03
2018-08-06T11:32:08.489Z,30.02
2018-08-06T11:33:08.486Z,29.98
2018-08-06T11:34:08.489Z,29.94
2018-08-06T11:35:08.477Z,30.02
2018-08-06T11:36:08.480Z,29.99
2018-08-06T11:37:08.472Z,29.96
2018-08-06T11:38:08.602Z,29.95
2018-08-06T11:39:08.465Z,30.01
2018-08-06T11:40:08.453Z,29.98
2018-08-06T11:41:08.456Z,29.95
2018-08-06T11:42:08.448Z,29.99
2018-08-06T11:43:08.450Z,29.98
2018-08-06T11:44:08.448Z,29.99
2018-08-06T11:45:08.440Z,30.01
2018-08-06T11:46:08.444Z,30.02
2018-08-06T11:47:08.431Z,30.01
2018-08-06T11:48:08.427Z,30.02
2018-08-06T11:49:08.423Z,29.99
2018-08-06T11:50:08.423Z,30.03
2018-08-06T11:51:08.415Z,30.02
2018-08-06T11:52:08.412Z,29.98
2018-08-06T11:53:08.407Z,30.03
2018-08-06T11:54:08.404Z,30.01
2018-08-06T11:55:08.409Z,30.05
2018-08-06T11:56:08.397Z,29.98
2018-08-06T11:57:08.393Z,30.02
2018-08-06T11:58:08.389Z,29.99
2018-08-06T11:59:08.387Z,30.01
2018-08-06T12:00:08.391Z,29.96
2018-08-06T12:01:08.376Z,29.95
2018-08-06T12:02:08.375Z,29.96
2018-08-06T12:03:08.374Z,29.96
2018-08-06T12:04:08.367Z,29.94
2018-08-06T12:05:08.360Z,29.96
2018-08-06T12:06:08.357Z,29.92
2018-08-06T12:07:08.354Z,29.95
2018-08-06T12:08:08.351Z,29.89
2018-08-06T12:09:08.355Z,29.92
2018-08-06T12:10:08.343Z,29.89
2018-08-06T12:11:08.339Z,29.92
2018-08-06T12:12:08.335Z,29.90
2018-08-06T12:13:08.330Z,29.86
2018-08-06T12:14:08.327Z,29.84
2018-08-06T12:15:08.375Z,29.89
2018-08-06T12:16:08.320Z,29.83
2018-08-06T12:17:08.316Z,29.87
2018-08-06T12:18:08.314Z,29.90
2018-08-06T12:19:08.312Z,29.86
2018-08-06T12:20:08.304Z,29.89
2018-08-06T12:21:08.303Z,29.86
2018-08-06T12:22:08.303Z,29.92
2018-08-06T12:23:08.295Z,29.86
2018-08-06T12:24:08.288Z,29.92
2018-08-06T12:25:08.287Z,29.86
2018-08-06T12:26:08.440Z,29.86
2018-08-06T12:27:08.282Z,29.86
2018-08-06T12:28:08.275Z,29.83
2018-08-06T12:29:08.267Z,29.86
2018-08-06T12:30:08.263Z,29.80
2018-08-06T12:31:08.262Z,29.80
2018-08-06T12:32:08.257Z,29.79
2018-08-06T12:33:08.266Z,29.77
2018-08-06T12:34:08.256Z,29.79
2018-08-06T12:35:08.249Z,29.71
2018-08-06T12:36:08.242Z,29.79
2018-08-06T12:37:08.238Z,29.76
2018-08-06T12:38:08.289Z,29.83
2018-08-06T12:39:08.231Z,29.79
2018-08-06T12:40:08.235Z,29.74
2018-08-06T12:41:08.224Z,29.77
2018-08-06T12:42:08.220Z,29.81
2018-08-06T12:43:08.216Z,29.76
2018-08-06T12:44:08.211Z,29.84
2018-08-06T12:45:08.215Z,29.76
2018-08-06T12:46:08.210Z,29.76
2018-08-06T12:47:08.200Z,29.77
2018-08-06T12:48:08.195Z,29.74
2018-08-06T12:49:08.192Z,29.76
2018-08-06T12:50:08.188Z,29.73
2018-08-06T12:51:08.184Z,29.74
2018-08-06T12:52:08.180Z,29.69
2018-08-06T12:53:08.175Z,29.81
2018-08-06T12:54:08.170Z,29.74
2018-08-06T12:55:08.173Z,29.69
2018-08-06T12:56:08.193Z,29.71
2018-08-06T12:57:08.202Z,29.73
2018-08-06T12:58:08.170Z,29.69
2018-08-06T12:59:08.151Z,29.76
2018-08-06T13:00:08.148Z,29.69
2018-08-06T13:01:08.153Z,29.69
2018-08-06T13:02:08.143Z,29.76
2018-08-06T13:03:08.137Z,29.76
2018-08-06T13:04:08.131Z,29.68
2018-08-06T13:05:08.141Z,29.68
2018-08-06T13:06:08.138Z,29.76
2018-08-06T13:07:08.120Z,29.65
2018-08-06T13:08:08.123Z,29.67
2018-08-06T13:09:08.120Z,29.62
2018-08-06T13:10:08.227Z,29.73
2018-08-06T13:11:08.108Z,29.62
2018-08-06T13:12:08.099Z,29.67
2018-08-06T13:13:08.097Z,29.65
2018-08-06T13:14:08.093Z,29.67
2018-08-06T13:15:08.096Z,29.62
2018-08-06T13:16:08.085Z,29.61
2018-08-06T13:17:08.080Z,29.65
2018-08-06T13:18:08.116Z,29.67
2018-08-06T13:19:08.079Z,29.65
2018-08-06T13:20:08.074Z,29.65
2018-08-06T13:21:08.073Z,29.67
2018-08-06T13:22:08.062Z,29.64
2018-08-06T13:23:08.057Z,29.68
2018-08-06T13:24:08.051Z,29.68
2018-08-06T13:25:08.050Z,29.64
2018-08-06T13:26:08.046Z,29.64
2018-08-06T13:27:08.042Z,29.67
2018-08-06T13:28:08.038Z,29.61
2018-08-06T13:29:08.033Z,29.61
2018-08-06T13:30:08.030Z,29.59
2018-08-06T13:31:08.027Z,29.65
2018-08-06T13:32:08.030Z,29.62
2018-08-06T13:33:08.019Z,29.62
2018-08-06T13:34:08.017Z,29.57
2018-08-06T13:35:08.020Z,29.59
2018-08-06T13:36:08.001Z,29.58
2018-08-06T13:37:08.003Z,29.55
2018-08-06T13:38:08.001Z,29.57
2018-08-06T13:39:07.993Z,29.57
2018-08-06T13:40:07.989Z,29.57
2018-08-06T13:41:07.986Z,29.61
2018-08-06T13:42:07.981Z,29.55
2018-08-06T13:43:07.981Z,29.57
2018-08-06T13:44:07.986Z,29.55
2018-08-06T13:45:07.978Z,29.55
2018-08-06T13:46:07.969Z,29.57
2018-08-06T13:47:08.020Z,29.59
2018-08-06T13:48:07.957Z,29.55
2018-08-06T13:49:07.956Z,29.53
2018-08-06T13:50:07.955Z,29.62
2018-08-06T13:51:07.948Z,29.55
2018-08-06T13:52:07.945Z,29.55
2018-08-06T13:53:07.985Z,29.61
2018-08-06T13:54:07.936Z,29.58
2018-08-06T13:55:07.936Z,29.64
2018-08-06T13:56:07.928Z,29.57